createdAt,value
2019-03-15T00:01:42.799Z,15.17
2019-03-15T00:04:11.708Z,17.97
2019-03-15T00:06:40.562Z,10.53
2019-03-15T00:09:12.855Z,10.60
2019-03-15T00:11:41.739Z,16.67
2019-03-15T00:14:10.873Z,9.93
2019-03-15T00:16:40.512Z,14.40
2019-03-15T00:19:11.414Z,12.77
2019-03-15T00:21:40.314Z,13.70
2019-03-15T00:24:09.837Z,9.63
2019-03-15T00:26:39.162Z,16.57
2019-03-15T00:29:08.104Z,14.60
2019-03-15T00:31:37.595Z,12.27
2019-03-15T00:34:09.401Z,8.03
2019-03-15T00:36:38.465Z,11.90
2019-03-15T00:39:07.864Z,9.80
2019-03-15T00:41:37.155Z,14.67
2019-03-15T00:44:06.069Z,12.63
2019-03-15T00:46:35.052Z,14.97
2019-03-15T00:49:04.373Z,12.03
2019-03-15T00:51:33.300Z,14.83
2019-03-15T00:54:03.467Z,12.17
2019-03-15T00:56:32.782Z,10.73
2019-03-15T00:59:02.311Z,16.63
2019-03-15T01:01:31.224Z,10.00
2019-03-15T01:04:00.442Z,12.50
2019-03-15T01:06:29.906Z,13.33
2019-03-15T01:08:58.819Z,13.00
2019-03-15T01:11:27.913Z,12.30
2019-03-15T01:13:57.973Z,16.00
2019-03-15T01:16:26.871Z,11.63
2019-03-15T01:18:55.712Z,17.87
2019-03-15T01:21:25.559Z,17.23
2019-03-15T01:23:54.396Z,14.97
2019-03-15T01:26:23.286Z,14.43
2019-03-15T01:28:52.210Z,19.63
2019-03-15T01:31:21.096Z,14.43
2019-03-15T01:33:50.353Z,14.17
2019-03-15T01:36:19.241Z,13.80
2019-03-15T01:38:48.128Z,14.37
2019-03-15T01:41:17.111Z,17.93
2019-03-15T01:43:46.306Z,19.63
2019-03-15T01:46:15.417Z,16.80
2019-03-15T01:48:44.373Z,13.57
2019-03-15T01:51:13.620Z,15.27
2019-03-15T01:53:42.799Z,16.80
2019-03-15T01:56:11.687Z,14.20
2019-03-15T01:58:41.323Z,14.63
2019-03-15T02:01:10.466Z,16.90
2019-03-15T02:03:40.962Z,14.13
2019-03-15T02:06:09.804Z,14.63
2019-03-15T02:08:38.602Z,16.53
2019-03-15T02:11:10.918Z,16.80
2019-03-15T02:13:41.229Z,14.60
2019-03-15T02:16:13.419Z,15.40
2019-03-15T02:18:42.319Z,17.07
2019-03-15T02:21:12.286Z,22.23
2019-03-15T02:23:41.204Z,22.77
2019-03-15T02:26:10.425Z,15.63
2019-03-15T02:28:39.525Z,15.23
2019-03-15T02:31:08.479Z,21.57
2019-03-15T02:33:37.366Z,14.50
2019-03-15T02:36:06.865Z,15.77
2019-03-15T02:38:36.049Z,19.17
2019-03-15T02:41:05.426Z,20.60
2019-03-15T02:43:34.623Z,20.20
2019-03-15T02:46:04.359Z,19.03
2019-03-15T02:48:33.307Z,23.07
2019-03-15T02:51:02.189Z,23.47
2019-03-15T02:53:31.893Z,25.30
2019-03-15T02:56:00.691Z,20.87
2019-03-15T02:58:34.041Z,21.07
2019-03-15T03:01:02.987Z,21.83
2019-03-15T03:03:32.266Z,17.47
2019-03-15T03:06:01.504Z,19.97
2019-03-15T03:08:30.900Z,12.27
2019-03-15T03:10:59.803Z,31.10
2019-03-15T03:13:30.498Z,14.33
2019-03-15T03:15:59.381Z,22.17
2019-03-15T03:18:29.498Z,19.43
2019-03-15T03:20:58.400Z,20.37
2019-03-15T03:23:27.366Z,13.27
2019-03-15T03:25:56.683Z,16.73
2019-03-15T03:28:26.187Z,19.70
2019-03-15T03:30:55.140Z,17.00
2019-03-15T03:33:24.028Z,22.00
2019-03-15T03:35:54.146Z,17.77
2019-03-15T03:38:22.972Z,25.47
2019-03-15T03:40:51.863Z,20.30
2019-03-15T03:43:20.836Z,25.67
2019-03-15T03:45:50.542Z,28.07
2019-03-15T03:48:19.345Z,23.43
2019-03-15T03:50:51.407Z,28.00
2019-03-15T03:53:20.909Z,20.03
2019-03-15T03:55:51.599Z,20.43
2019-03-15T03:58:20.754Z,26.13
2019-03-15T04:00:49.651Z,31.13
2019-03-15T04:03:18.759Z,21.17
2019-03-15T04:05:48.040Z,19.93
2019-03-15T04:08:16.948Z,18.37
2019-03-15T04:10:45.822Z,21.17
2019-03-15T04:13:14.689Z,11.80
2019-03-15T04:15:43.879Z,17.30
2019-03-15T04:18:13.972Z,15.20
2019-03-15T04:20:43.031Z,14.83
2019-03-15T04:23:13.249Z,12.30
2019-03-15T04:25:42.079Z,14.93
2019-03-15T04:28:12.617Z,14.10
2019-03-15T04:30:42.379Z,16.40
2019-03-15T04:33:11.542Z,18.33
2019-03-15T04:35:40.552Z,14.23
2019-03-15T04:38:09.708Z,11.23
2019-03-15T04:40:38.522Z,12.63
2019-03-15T04:43:07.408Z,14.07
2019-03-15T04:45:36.456Z,9.23
2019-03-15T04:48:05.470Z,13.93
2019-03-15T04:50:34.314Z,14.20
2019-03-15T04:53:03.491Z,11.00
2019-03-15T04:55:32.802Z,8.53
2019-03-15T04:58:01.904Z,8.90
2019-03-15T05:00:30.778Z,8.70
2019-03-15T05:02:59.658Z,9.00
2019-03-15T05:05:28.531Z,11.63
2019-03-15T05:07:57.516Z,10.73
2019-03-15T05:10:26.314Z,11.07
2019-03-15T05:12:55.520Z,14.47
2019-03-15T05:15:25.201Z,12.77
2019-03-15T05:17:54.063Z,11.83
2019-03-15T05:20:23.160Z,14.80
2019-03-15T05:22:52.402Z,10.80
2019-03-15T05:25:21.560Z,13.00
2019-03-15T05:27:50.749Z,14.43
2019-03-15T05:30:19.667Z,15.47
2019-03-15T05:32:48.480Z,14.87
2019-03-15T05:35:17.351Z,14.00
2019-03-15T05:37:46.190Z,14.13
2019-03-15T05:40:15.344Z,12.93
2019-03-15T05:42:44.643Z,12.63
2019-03-15T05:45:13.536Z,13.37
2019-03-15T05:47:42.581Z,13.13
2019-03-15T05:50:11.570Z,15.23
2019-03-15T05:52:40.859Z,13.33
2019-03-15T05:55:11.201Z,13.27
2019-03-15T05:57:40.093Z,10.50
2019-03-15T06:00:10.669Z,12.13
2019-03-15T06:02:39.906Z,11.97
2019-03-15T06:05:09.030Z,13.90
2019-03-15T06:07:39.386Z,8.67
2019-03-15T06:10:08.519Z,16.27
2019-03-15T06:12:37.849Z,14.43
2019-03-15T06:15:07.076Z,11.50
2019-03-15T06:17:37.267Z,16.70
2019-03-15T06:20:06.617Z,17.70
2019-03-15T06:22:35.446Z,16.47
2019-03-15T06:25:04.925Z,18.13
2019-03-15T06:27:36.240Z,21.03
2019-03-15T06:30:07.179Z,18.47
2019-03-15T06:32:36.141Z,18.37
2019-03-15T06:35:05.687Z,22.17
2019-03-15T06:37:37.206Z,16.57
2019-03-15T06:40:06.448Z,24.70
2019-03-15T06:42:35.555Z,17.07
2019-03-15T06:45:05.632Z,23.00
2019-03-15T06:47:36.004Z,25.77
2019-03-15T06:50:05.571Z,19.40
2019-03-15T06:52:34.540Z,23.77
2019-03-15T06:55:05.467Z,20.47
2019-03-15T06:57:35.024Z,24.13
2019-03-15T07:00:04.124Z,22.93
2019-03-15T07:02:33.301Z,20.50
2019-03-15T07:05:02.246Z,22.37
2019-03-15T07:07:31.209Z,17.47
2019-03-15T07:10:00.168Z,17.67
2019-03-15T07:12:29.633Z,18.10
2019-03-15T07:15:01.718Z,16.10
2019-03-15T07:17:31.140Z,23.47
2019-03-15T07:20:01.854Z,21.60
2019-03-15T07:22:31.933Z,21.03
2019-03-15T07:25:00.761Z,16.30
2019-03-15T07:27:31.507Z,20.33
2019-03-15T07:30:00.627Z,16.90
2019-03-15T07:32:30.574Z,19.87
2019-03-15T07:35:00.305Z,17.00
2019-03-15T07:37:29.274Z,17.33
2019-03-15T07:39:58.718Z,19.73
2019-03-15T07:42:27.592Z,23.20
2019-03-15T07:44:56.608Z,12.23
2019-03-15T07:47:25.534Z,23.60
2019-03-15T07:49:55.406Z,16.63
2019-03-15T07:52:24.601Z,23.00
2019-03-15T07:54:56.560Z,19.23
2019-03-15T07:57:26.023Z,16.07
2019-03-15T07:59:54.947Z,15.47
2019-03-15T08:02:23.984Z,25.80
2019-03-15T08:04:52.903Z,21.40
2019-03-15T08:07:35.802Z,21.83
2019-03-15T08:09:56.074Z,20.67
2019-03-15T08:12:25.741Z,21.77
2019-03-15T08:14:54.681Z,17.30
2019-03-15T08:17:23.968Z,23.03
2019-03-15T08:19:52.892Z,21.00
2019-03-15T08:22:21.849Z,18.90
2019-03-15T08:24:52.020Z,16.67
2019-03-15T08:27:21.775Z,26.33
2019-03-15T08:29:52.693Z,21.17
2019-03-15T08:32:21.805Z,14.00
2019-03-15T08:34:50.689Z,27.10
2019-03-15T08:37:20.299Z,26.10
2019-03-15T08:39:49.398Z,21.10
2019-03-15T08:42:19.439Z,22.30
2019-03-15T08:44:48.920Z,20.30
2019-03-15T08:47:21.460Z,27.80
2019-03-15T08:49:49.236Z,26.27
2019-03-15T08:52:18.484Z,22.20
2019-03-15T08:54:47.569Z,22.63
2019-03-15T08:57:16.565Z,22.73
2019-03-15T08:59:56.622Z,19.23
2019-03-15T09:02:16.478Z,22.47
2019-03-15T09:04:45.610Z,22.83
2019-03-15T09:07:21.888Z,27.87
2019-03-15T09:09:50.933Z,27.93
2019-03-15T09:12:19.861Z,20.47
2019-03-15T09:14:49.097Z,20.33
2019-03-15T09:17:20.026Z,21.07
2019-03-15T09:19:48.737Z,27.93
2019-03-15T09:22:17.701Z,25.30
2019-03-15T09:24:47.391Z,24.63
2019-03-15T09:27:16.981Z,22.43
2019-03-15T09:29:45.841Z,19.27
2019-03-15T09:32:15.971Z,23.17
2019-03-15T09:34:44.841Z,21.80
2019-03-15T09:37:14.160Z,21.07
2019-03-15T09:39:43.172Z,24.23
2019-03-15T09:42:12.080Z,19.37
2019-03-15T09:44:41.614Z,13.93
2019-03-15T09:47:18.049Z,18.70
2019-03-15T09:49:47.604Z,26.07
2019-03-15T09:52:20.017Z,20.85
2019-03-15T09:54:49.752Z,22.73
2019-03-15T09:57:19.726Z,12.40
2019-03-15T09:59:49.182Z,24.00
2019-03-15T10:02:29.679Z,22.40
2019-03-15T10:04:50.253Z,18.55
2019-03-15T10:07:19.250Z,14.90
2019-03-15T10:09:48.777Z,14.83
2019-03-15T10:14:53.162Z,22.40
2019-03-15T10:17:23.149Z,18.67
2019-03-15T10:19:52.374Z,16.93
2019-03-15T10:22:21.647Z,18.90
2019-03-15T10:24:50.753Z,18.33
2019-03-15T10:27:21.745Z,19.00
2019-03-15T10:29:50.914Z,21.97
2019-03-15T10:32:19.841Z,15.77
2019-03-15T10:34:48.839Z,17.53
2019-03-15T10:37:17.811Z,17.67
2019-03-15T10:39:47.029Z,13.83
2019-03-15T10:42:17.225Z,21.07
2019-03-15T10:44:48.515Z,18.03
2019-03-15T10:47:18.309Z,14.17
2019-03-15T10:52:22.084Z,18.10
2019-03-15T10:54:51.226Z,24.83
2019-03-15T10:57:22.058Z,19.13
2019-03-15T10:59:51.486Z,20.85
2019-03-15T11:02:20.415Z,13.37
2019-03-15T11:04:49.396Z,17.33
2019-03-15T11:07:18.651Z,15.60
2019-03-15T11:09:48.489Z,16.17
2019-03-15T11:12:17.347Z,11.90
2019-03-15T11:14:46.249Z,15.63
2019-03-15T11:17:15.998Z,25.70
2019-03-15T11:19:44.966Z,21.20
2019-03-15T11:22:13.878Z,17.45
2019-03-15T11:24:43.929Z,18.30
2019-03-15T11:27:16.162Z,16.73
2019-03-15T11:29:45.167Z,17.32
2019-03-15T11:32:14.007Z,20.68
2019-03-15T11:34:44.738Z,16.40
2019-03-15T11:37:13.676Z,21.42
2019-03-15T11:39:43.098Z,20.30
2019-03-15T11:42:14.869Z,13.08
2019-03-15T11:44:44.950Z,18.30
2019-03-15T11:47:14.749Z,17.75
2019-03-15T11:49:44.283Z,13.60
2019-03-15T11:52:14.149Z,25.32
2019-03-15T11:54:43.949Z,17.50
2019-03-15T11:57:14.546Z,17.70
2019-03-15T11:59:44.128Z,14.95
2019-03-15T12:02:13.910Z,14.23
2019-03-15T12:04:43.223Z,13.43
2019-03-15T12:07:13.095Z,22.40
2019-03-15T12:09:43.034Z,15.38
2019-03-15T12:12:11.992Z,19.95
2019-03-15T12:14:45.442Z,14.53
2019-03-15T12:17:14.407Z,14.28
2019-03-15T12:19:43.705Z,16.35
2019-03-15T12:22:15.154Z,14.33
2019-03-15T12:24:44.258Z,14.95
2019-03-15T12:27:18.518Z,18.40
2019-03-15T12:29:47.596Z,20.17
2019-03-15T12:32:16.486Z,23.90
2019-03-15T12:34:45.841Z,15.58
2019-03-15T12:37:15.478Z,22.17
2019-03-15T12:39:44.437Z,27.17
2019-03-15T12:42:16.821Z,25.67
2019-03-15T12:44:45.723Z,21.03
2019-03-15T12:47:17.971Z,30.60
2019-03-15T12:49:47.672Z,24.00
2019-03-15T12:52:16.597Z,26.33
2019-03-15T12:54:45.924Z,28.50
2019-03-15T12:57:14.915Z,32.17
2019-03-15T12:59:44.002Z,22.30
2019-03-15T13:02:12.923Z,19.50
2019-03-15T13:04:44.215Z,22.40
2019-03-15T13:07:14.939Z,24.80
2019-03-15T13:09:49.059Z,29.70
2019-03-15T13:12:18.014Z,28.70
2019-03-15T13:14:48.294Z,31.27
2019-03-15T13:17:17.995Z,29.63
2019-03-15T13:19:55.045Z,27.10
2019-03-15T13:22:19.533Z,26.13
2019-03-15T13:24:48.906Z,32.20
2019-03-15T13:27:17.747Z,25.03
2019-03-15T13:29:46.690Z,27.50
2019-03-15T13:32:15.989Z,31.07
2019-03-15T13:34:45.120Z,32.97
2019-03-15T13:37:14.494Z,29.50
2019-03-15T13:39:47.493Z,35.60
2019-03-15T13:42:16.424Z,24.60
2019-03-15T13:44:45.910Z,21.93
2019-03-15T13:47:15.113Z,28.37
2019-03-15T13:49:44.366Z,22.87
2019-03-15T13:52:14.770Z,33.93
2019-03-15T13:54:44.800Z,31.27
2019-03-15T13:57:21.270Z,32.30
2019-03-15T14:02:24.505Z,24.47
2019-03-15T14:04:53.400Z,34.27
2019-03-15T14:07:22.524Z,36.03
2019-03-15T14:09:51.417Z,28.87
2019-03-15T14:12:21.254Z,23.53
2019-03-15T14:14:51.074Z,39.10
2019-03-15T14:17:20.325Z,38.30
2019-03-15T14:22:24.589Z,33.83
2019-03-15T14:24:58.318Z,27.80
2019-03-15T14:27:37.406Z,25.67
2019-03-15T14:30:03.368Z,33.17
2019-03-15T14:32:32.708Z,30.80
2019-03-15T14:35:01.686Z,33.70
2019-03-15T14:37:31.040Z,25.87
2019-03-15T14:40:03.267Z,23.93
2019-03-15T14:42:32.284Z,22.10
2019-03-15T14:45:05.715Z,29.10
2019-03-15T14:47:34.961Z,28.97
2019-03-15T14:50:04.622Z,25.15
2019-03-15T14:52:34.172Z,27.90
2019-03-15T14:55:06.713Z,23.47
2019-03-15T14:57:36.031Z,19.27
2019-03-15T15:00:06.638Z,17.80
2019-03-15T15:02:35.869Z,25.00
2019-03-15T15:05:05.294Z,18.80
2019-03-15T15:07:34.558Z,14.23
2019-03-15T15:10:03.874Z,21.60
2019-03-15T15:12:32.797Z,18.23
2019-03-15T15:15:01.636Z,14.73
2019-03-15T15:17:31.058Z,16.20
2019-03-15T15:20:00.591Z,16.40
2019-03-15T15:22:29.485Z,14.17
2019-03-15T15:24:58.777Z,12.40
2019-03-15T15:27:29.813Z,19.50
2019-03-15T15:30:00.881Z,15.70
2019-03-15T15:32:30.159Z,16.07
2019-03-15T15:35:00.195Z,18.42
2019-03-15T15:37:29.769Z,14.23
2019-03-15T15:40:00.178Z,13.43
2019-03-15T15:42:32.431Z,14.03
2019-03-15T15:45:01.607Z,15.30
2019-03-15T15:47:30.562Z,10.87
2019-03-15T15:49:59.685Z,10.50
2019-03-15T15:52:29.472Z,17.00
2019-03-15T15:54:58.774Z,15.67
2019-03-15T15:57:27.685Z,15.27
2019-03-15T15:59:57.204Z,13.80
2019-03-15T16:02:26.107Z,12.30
2019-03-15T16:04:55.019Z,12.70
2019-03-15T16:07:23.934Z,7.97
2019-03-15T16:09:52.875Z,10.27
2019-03-15T16:14:57.892Z,10.60
2019-03-15T16:17:26.889Z,12.73
2019-03-15T16:19:55.816Z,12.17
2019-03-15T16:22:24.636Z,16.97
2019-03-15T16:24:56.133Z,11.50
2019-03-15T16:27:24.754Z,14.77
2019-03-15T16:29:53.886Z,8.67
2019-03-15T16:32:24.713Z,11.40
2019-03-15T16:34:54.138Z,13.07
2019-03-15T16:37:24.236Z,15.20
2019-03-15T16:39:56.323Z,12.43
2019-03-15T16:42:24.672Z,10.90
2019-03-15T16:44:56.448Z,10.27
2019-03-15T16:47:25.673Z,12.83
2019-03-15T16:49:54.998Z,14.07
2019-03-15T16:52:23.958Z,13.63
2019-03-15T16:54:52.892Z,11.97
2019-03-15T16:57:21.911Z,13.10
2019-03-15T16:59:53.213Z,15.47
2019-03-15T17:02:22.224Z,14.20
2019-03-15T17:04:51.569Z,13.73
2019-03-15T17:07:20.515Z,12.57
2019-03-15T17:09:49.478Z,20.77
2019-03-15T17:12:18.439Z,13.57
2019-03-15T17:14:47.556Z,12.47
2019-03-15T17:17:16.807Z,12.20
2019-03-15T17:19:46.446Z,11.03
2019-03-15T17:22:15.399Z,7.83
2019-03-15T17:24:44.593Z,17.50
2019-03-15T17:27:13.677Z,16.20
2019-03-15T17:29:42.689Z,11.30
2019-03-15T17:32:11.640Z,9.37
2019-03-15T17:34:40.456Z,12.83
2019-03-15T17:37:09.790Z,11.03
2019-03-15T17:39:38.785Z,11.13
2019-03-15T17:42:08.098Z,11.97
2019-03-15T17:44:37.148Z,12.60
2019-03-15T17:47:06.470Z,17.90
2019-03-15T17:49:35.468Z,14.07
2019-03-15T17:52:04.466Z,12.73
2019-03-15T17:54:33.863Z,14.80
2019-03-15T17:57:03.508Z,11.13
2019-03-15T17:59:35.670Z,13.93
2019-03-15T18:02:04.729Z,17.27
2019-03-15T18:04:33.569Z,9.50
2019-03-15T18:07:03.458Z,14.93
2019-03-15T18:09:32.522Z,15.43
2019-03-15T18:12:01.437Z,12.80
2019-03-15T18:14:30.335Z,9.27
2019-03-15T18:16:59.218Z,14.83
2019-03-15T18:19:28.194Z,10.60
2019-03-15T18:21:57.770Z,12.03
2019-03-15T18:24:27.062Z,14.80
2019-03-15T18:26:55.950Z,15.37
2019-03-15T18:31:59.835Z,12.67
2019-03-15T18:34:28.994Z,15.60
2019-03-15T18:36:59.179Z,10.47
2019-03-15T18:39:28.207Z,10.07
2019-03-15T18:41:57.118Z,13.57
2019-03-15T18:44:26.110Z,12.90
2019-03-15T18:46:55.657Z,15.27
2019-03-15T18:49:24.598Z,14.30
2019-03-15T18:51:53.765Z,9.83
2019-03-15T18:54:22.639Z,11.67
2019-03-15T18:56:52.333Z,10.27
2019-03-15T18:59:21.831Z,12.33
2019-03-15T19:01:51.989Z,9.90
2019-03-15T19:04:21.663Z,12.63
2019-03-15T19:06:50.637Z,10.37
2019-03-15T19:09:19.596Z,8.70
2019-03-15T19:11:48.508Z,12.23
2019-03-15T19:14:17.412Z,11.33
2019-03-15T19:16:46.803Z,12.73
2019-03-15T19:19:17.111Z,9.33
2019-03-15T19:24:23.083Z,11.17
2019-03-15T19:26:52.062Z,8.80
2019-03-15T19:29:24.223Z,12.50
2019-03-15T19:31:53.155Z,10.53
2019-03-15T19:34:22.718Z,10.07
2019-03-15T19:36:52.163Z,9.73
2019-03-15T19:39:24.167Z,9.90
2019-03-15T19:41:54.139Z,8.33
2019-03-15T19:44:23.107Z,8.77
2019-03-15T19:46:52.045Z,15.27
2019-03-15T19:49:21.755Z,6.60
2019-03-15T19:51:50.974Z,9.77
2019-03-15T19:54:21.069Z,10.53
2019-03-15T19:59:27.318Z,7.20
2019-03-15T20:01:56.532Z,11.23
2019-03-15T20:04:25.761Z,9.60
2019-03-15T20:06:56.775Z,9.97
2019-03-15T20:09:26.458Z,9.07
2019-03-15T20:11:55.366Z,18.67
2019-03-15T20:14:25.479Z,8.53
2019-03-15T20:16:54.967Z,18.63
2019-03-15T20:19:23.992Z,12.03
2019-03-15T20:21:52.934Z,15.50
2019-03-15T20:24:21.858Z,17.43
2019-03-15T20:26:52.967Z,18.53
2019-03-15T20:29:25.341Z,17.57
2019-03-15T20:31:56.568Z,12.40
2019-03-15T20:34:26.068Z,20.97
2019-03-15T20:36:55.326Z,12.13
2019-03-15T20:39:24.750Z,19.47
2019-03-15T20:41:54.210Z,13.90
2019-03-15T20:44:28.340Z,18.50
2019-03-15T20:46:53.882Z,25.73
2019-03-15T20:49:22.852Z,20.50
2019-03-15T20:51:53.126Z,15.97
2019-03-15T20:54:22.066Z,14.00
2019-03-15T20:56:50.993Z,12.43
2019-03-15T20:59:20.266Z,12.90
2019-03-15T21:01:49.683Z,14.47
2019-03-15T21:04:19.453Z,13.53
2019-03-15T21:06:51.669Z,11.37
2019-03-15T21:09:21.201Z,14.17
2019-03-15T21:11:50.394Z,17.33
2019-03-15T21:14:19.663Z,15.40
2019-03-15T21:16:49.119Z,15.93
2019-03-15T21:19:18.364Z,14.10
2019-03-15T21:21:47.389Z,17.53
2019-03-15T21:24:16.398Z,12.17
2019-03-15T21:26:45.398Z,16.67
2019-03-15T21:31:50.303Z,14.40
2019-03-15T21:34:19.174Z,8.73
2019-03-15T21:36:50.736Z,8.93
2019-03-15T21:39:21.355Z,12.27
2019-03-15T21:44:25.251Z,8.90
2019-03-15T21:46:54.130Z,9.43
2019-03-15T21:49:22.944Z,13.40
2019-03-15T21:51:52.017Z,10.37
2019-03-15T21:54:21.545Z,11.10
2019-03-15T21:56:51.680Z,10.87
2019-03-15T21:59:21.201Z,8.37
2019-03-15T22:01:51.110Z,12.33
2019-03-15T22:04:20.339Z,8.90
2019-03-15T22:06:53.724Z,10.27
2019-03-15T22:09:26.618Z,10.97
2019-03-15T22:12:02.388Z,11.97
2019-03-15T22:14:31.393Z,8.40
2019-03-15T22:17:00.408Z,11.17
2019-03-15T22:19:29.959Z,8.07
2019-03-15T22:21:59.008Z,9.77
2019-03-15T22:24:28.334Z,12.00
2019-03-15T22:26:57.637Z,7.83
2019-03-15T22:29:28.221Z,7.63
2019-03-15T22:31:57.128Z,12.00
2019-03-15T22:34:26.817Z,10.23
2019-03-15T22:36:55.724Z,11.00
2019-03-15T22:39:30.873Z,9.10
2019-03-15T22:42:00.942Z,6.57
2019-03-15T22:44:30.293Z,7.97
2019-03-15T22:47:03.333Z,9.83
2019-03-15T22:49:34.725Z,12.83
2019-03-15T22:52:05.219Z,12.87
2019-03-15T22:54:35.225Z,16.07
2019-03-15T22:57:04.428Z,14.87
2019-03-15T22:59:33.636Z,9.93
2019-03-15T23:02:03.113Z,9.57
2019-03-15T23:04:32.471Z,14.37
2019-03-15T23:07:02.939Z,11.33
2019-03-15T23:09:32.299Z,8.30
2019-03-15T23:12:01.647Z,8.57
2019-03-15T23:14:31.278Z,11.97
2019-03-15T23:17:05.132Z,13.30
2019-03-15T23:19:33.972Z,6.60
2019-03-15T23:22:03.251Z,8.23
2019-03-15T23:24:33.184Z,11.67
2019-03-15T23:27:02.186Z,11.83
2019-03-15T23:29:31.480Z,7.77
2019-03-15T23:32:00.291Z,6.33
2019-03-15T23:34:29.251Z,11.30
2019-03-15T23:36:58.361Z,14.50
2019-03-15T23:39:27.271Z,11.03
2019-03-15T23:41:56.175Z,10.03
2019-03-15T23:44:25.087Z,13.43
2019-03-15T23:46:54.211Z,8.57
2019-03-15T23:49:23.142Z,12.67
2019-03-15T23:51:52.261Z,11.70
2019-03-15T23:54:21.172Z,14.83
2019-03-15T23:56:50.752Z,13.40
2019-03-15T23:59:19.661Z,10.80
